Time;durP1;ratioP1;P1;durP2;ratioP2;P2;SDS_P1;SDS_P2;PMS_P1;PMS_P2;Temp;Humidity;BMP_temperature;BMP_pressure;BME280_temperature;BME280_humidity;BME280_pressure;Samples;Min_cycle;Max_cycle;Signal;HPM_P1;HPM_P2
2021/07/21 00:01:12;;;;;;;;;;;17.20;99.90;;;;;;6336520;28;19971;-73
2021/07/21 00:04:14;;;;;;;;;;;17.20;99.90;;;;;;6314362;28;20382;-73
2021/07/21 00:07:28;;;;;;;;;;;17.10;99.90;;;;;;6330262;28;20368;-73
2021/07/21 00:10:31;;;;;;;;;;;17.10;99.90;;;;;;6342354;28;19985;-73
2021/07/21 00:13:36;;;;;;;;;;;17.00;99.90;;;;;;6333774;28;20009;-73
2021/07/21 00:16:42;;;;;;;;;;;17.00;99.90;;;;;;6329972;28;19975;-73
2021/07/21 00:23:04;;;;;;;;;;;16.90;99.90;;;;;;6333237;28;19969;-73
2021/07/21 00:26:06;;;;;;;;;;;16.90;99.90;;;;;;6332581;28;20497;-73
2021/07/21 00:29:07;;;;;;;;;;;16.90;99.90;;;;;;6333550;28;19947;-73
2021/07/21 00:32:09;;;;;;;;;;;16.90;99.90;;;;;;6331452;28;19990;-73
2021/07/21 00:35:14;;;;;;;;;;;16.80;99.90;;;;;;6334330;28;20021;-73
2021/07/21 00:38:16;;;;;;;;;;;16.80;99.90;;;;;;6330058;28;20315;-73
2021/07/21 00:41:17;;;;;;;;;;;16.70;99.90;;;;;;6339294;28;19967;-73
2021/07/21 00:44:19;;;;;;;;;;;16.70;99.90;;;;;;6323335;28;20046;-73
2021/07/21 00:47:22;;;;;;;;;;;16.70;99.90;;;;;;6327205;28;19973;-73
2021/07/21 00:50:24;;;;;;;;;;;16.70;99.90;;;;;;6311192;28;20397;-73
2021/07/21 00:53:25;;;;;;;;;;;16.60;99.90;;;;;;6337120;28;20505;-73
2021/07/21 00:56:28;;;;;;;;;;;16.60;99.90;;;;;;6320238;28;20062;-73
2021/07/21 00:59:33;;;;;;;;;;;16.60;99.90;;;;;;6333897;28;19983;-73
2021/07/21 01:02:35;;;;;;;;;;;16.60;99.90;;;;;;6338514;28;19965;-73
2021/07/21 01:05:41;;;;;;;;;;;16.60;99.90;;;;;;6325441;28;20347;-73
2021/07/21 01:08:43;;;;;;;;;;;16.60;99.90;;;;;;6332724;28;20017;-73
2021/07/21 01:11:56;;;;;;;;;;;16.60;99.90;;;;;;6321580;28;20019;-73
2021/07/21 01:15:04;;;;;;;;;;;16.60;99.90;;;;;;6331781;28;19977;-72
2021/07/21 01:18:12;;;;;;;;;;;16.50;99.90;;;;;;6333645;28;20523;-73
2021/07/21 01:21:17;;;;;;;;;;;16.50;99.90;;;;;;6332297;28;20442;-73
2021/07/21 01:24:42;;;;;;;;;;;16.50;99.90;;;;;;6311507;28;19968;-73
2021/07/21 01:27:54;;;;;;;;;;;16.40;99.90;;;;;;6296686;28;19969;-73
2021/07/21 01:30:57;;;;;;;;;;;16.40;99.90;;;;;;6337306;28;20041;-73
2021/07/21 01:34:00;;;;;;;;;;;16.30;99.90;;;;;;6338022;28;20141;-73
2021/07/21 01:37:04;;;;;;;;;;;16.30;99.90;;;;;;6336669;28;20421;-73
2021/07/21 01:40:07;;;;;;;;;;;16.20;99.90;;;;;;6340311;28;19967;-73
2021/07/21 01:43:11;;;;;;;;;;;16.20;99.90;;;;;;6331848;28;19957;-73
2021/07/21 01:46:14;;;;;;;;;;;16.10;99.90;;;;;;6320117;28;19976;-73
2021/07/21 01:49:18;;;;;;;;;;;16.10;99.90;;;;;;6340921;28;19973;-73
2021/07/21 01:52:23;;;;;;;;;;;16.10;99.90;;;;;;6333408;28;19980;-73
2021/07/21 01:55:25;;;;;;;;;;;16.10;99.90;;;;;;6338188;28;19968;-73
2021/07/21 01:58:28;;;;;;;;;;;16.10;99.90;;;;;;6337670;28;19966;-73
2021/07/21 02:01:31;;;;;;;;;;;16.00;99.90;;;;;;6319118;28;20370;-73
2021/07/21 02:04:36;;;;;;;;;;;16.00;99.90;;;;;;6331119;28;20069;-73
2021/07/21 02:07:42;;;;;;;;;;;15.90;99.90;;;;;;6315663;28;19985;-72
2021/07/21 02:10:44;;;;;;;;;;;15.90;99.90;;;;;;6344091;28;20406;-73
2021/07/21 02:13:45;;;;;;;;;;;15.80;99.90;;;;;;6325751;28;19986;-73
2021/07/21 02:16:47;;;;;;;;;;;15.80;99.90;;;;;;6311765;28;19960;-73
2021/07/21 02:19:49;;;;;;;;;;;15.80;99.90;;;;;;6315216;28;19973;-73
2021/07/21 02:22:51;;;;;;;;;;;15.80;99.90;;;;;;6333965;28;19975;-73
2021/07/21 02:25:56;;;;;;;;;;;15.80;99.90;;;;;;6326819;28;19978;-73
2021/07/21 02:28:58;;;;;;;;;;;15.70;99.90;;;;;;6336300;28;20483;-73
2021/07/21 02:32:00;;;;;;;;;;;15.80;99.90;;;;;;6326757;28;20032;-73
2021/07/21 02:35:02;;;;;;;;;;;15.70;99.90;;;;;;6314137;28;19974;-72
2021/07/21 02:38:04;;;;;;;;;;;15.80;99.90;;;;;;6329608;28;19981;-72
2021/07/21 02:41:06;;;;;;;;;;;15.70;99.90;;;;;;6331124;28;19973;-73
2021/07/21 02:44:07;;;;;;;;;;;15.70;99.90;;;;;;6313425;28;20312;-73
2021/07/21 02:47:10;;;;;;;;;;;15.70;99.90;;;;;;6319619;28;19977;-73
2021/07/21 02:50:12;;;;;;;;;;;15.60;99.90;;;;;;6331239;28;19970;-73
2021/07/21 02:53:22;;;;;;;;;;;15.60;99.90;;;;;;6340874;28;19985;-73
2021/07/21 02:56:25;;;;;;;;;;;15.50;99.90;;;;;;6328972;28;19984;-73
2021/07/21 02:59:35;;;;;;;;;;;15.50;99.90;;;;;;6337334;28;20374;-73
2021/07/21 03:02:37;;;;;;;;;;;15.50;99.90;;;;;;6315797;28;19978;-73
2021/07/21 03:05:39;;;;;;;;;;;15.40;99.90;;;;;;6329299;28;19978;-73
2021/07/21 03:08:41;;;;;;;;;;;15.40;99.90;;;;;;6319211;28;19986;-72
2021/07/21 03:11:45;;;;;;;;;;;15.40;99.90;;;;;;6329119;28;20004;-73
2021/07/21 03:14:47;;;;;;;;;;;15.30;99.90;;;;;;6343755;28;19973;-73
2021/07/21 03:17:49;;;;;;;;;;;15.30;99.90;;;;;;6315418;28;19979;-73
2021/07/21 03:20:53;;;;;;;;;;;15.30;99.90;;;;;;6336518;28;19980;-73
2021/07/21 03:23:55;;;;;;;;;;;15.20;99.90;;;;;;6328763;28;20419;-73
2021/07/21 03:26:57;;;;;;;;;;;15.20;99.90;;;;;;6343360;28;20018;-73
2021/07/21 03:30:00;;;;;;;;;;;15.10;99.90;;;;;;6321545;28;20054;-72
2021/07/21 03:33:02;;;;;;;;;;;15.10;99.90;;;;;;6336365;28;19997;-73
2021/07/21 03:36:04;;;;;;;;;;;15.10;99.90;;;;;;6313494;28;20041;-73
2021/07/21 03:39:07;;;;;;;;;;;15.00;99.90;;;;;;6332794;28;19975;-73
2021/07/21 03:42:09;;;;;;;;;;;15.00;99.90;;;;;;6331100;28;19986;-73
2021/07/21 03:45:13;;;;;;;;;;;15.00;99.90;;;;;;6310038;28;20443;-72
2021/07/21 03:48:16;;;;;;;;;;;15.00;99.90;;;;;;6328471;28;19974;-73
2021/07/21 03:51:17;;;;;;;;;;;14.90;99.90;;;;;;6337793;28;19975;-73
2021/07/21 03:54:19;;;;;;;;;;;14.90;99.90;;;;;;6324895;28;19996;-72
2021/07/21 03:57:23;;;;;;;;;;;14.90;99.90;;;;;;6332102;28;19977;-72
2021/07/21 04:00:25;;;;;;;;;;;14.80;99.90;;;;;;6329484;28;19978;-73
2021/07/21 04:03:28;;;;;;;;;;;14.80;99.90;;;;;;6326406;28;19973;-72
2021/07/21 04:06:31;;;;;;;;;;;14.80;99.90;;;;;;6336230;28;19982;-73
2021/07/21 04:09:34;;;;;;;;;;;14.80;99.90;;;;;;6312316;28;19977;-72
2021/07/21 04:12:37;;;;;;;;;;;14.90;99.90;;;;;;6335336;28;19998;-73
2021/07/21 04:15:39;;;;;;;;;;;14.80;99.90;;;;;;6334299;28;19979;-73
2021/07/21 04:18:42;;;;;;;;;;;14.90;99.90;;;;;;6325488;28;19985;-73
2021/07/21 04:21:45;;;;;;;;;;;14.80;99.90;;;;;;6311811;28;19981;-73
2021/07/21 04:24:47;;;;;;;;;;;14.90;99.90;;;;;;6335304;28;19986;-73
2021/07/21 04:27:49;;;;;;;;;;;14.90;99.90;;;;;;6334365;28;19978;-73
2021/07/21 04:30:54;;;;;;;;;;;14.90;99.90;;;;;;6325751;28;19982;-73
2021/07/21 04:33:56;;;;;;;;;;;14.90;99.90;;;;;;6314604;28;20299;-73
2021/07/21 04:36:58;;;;;;;;;;;14.90;99.90;;;;;;6338255;28;20040;-72
2021/07/21 04:40:01;;;;;;;;;;;15.00;99.90;;;;;;6329161;28;20336;-73
2021/07/21 04:43:03;;;;;;;;;;;15.00;99.90;;;;;;6309932;28;19980;-73
2021/07/21 04:46:04;;;;;;;;;;;15.00;99.90;;;;;;6332867;28;20323;-73
2021/07/21 04:49:11;;;;;;;;;;;15.10;99.90;;;;;;6327874;28;19969;-73
2021/07/21 04:52:13;;;;;;;;;;;15.10;99.90;;;;;;6319583;28;20348;-73
2021/07/21 04:55:16;;;;;;;;;;;15.20;99.90;;;;;;6331732;28;19970;-73
2021/07/21 04:58:18;;;;;;;;;;;15.20;99.90;;;;;;6333617;28;19970;-73
2021/07/21 05:01:19;;;;;;;;;;;15.30;99.90;;;;;;6315489;28;20352;-73
2021/07/21 05:04:21;;;;;;;;;;;15.30;99.90;;;;;;6333402;28;19986;-73
2021/07/21 05:07:23;;;;;;;;;;;15.40;99.90;;;;;;6332372;28;20005;-73
2021/07/21 05:10:25;;;;;;;;;;;15.40;99.90;;;;;;6326410;28;19979;-73
2021/07/21 05:13:26;;;;;;;;;;;15.50;99.90;;;;;;6315622;28;19996;-74
2021/07/21 05:16:28;;;;;;;;;;;15.50;99.90;;;;;;6341131;28;19978;-72
2021/07/21 05:19:30;;;;;;;;;;;15.60;99.90;;;;;;6330541;28;19985;-73
2021/07/21 05:22:32;;;;;;;;;;;15.60;99.90;;;;;;6315574;28;19971;-73
2021/07/21 05:25:35;;;;;;;;;;;15.70;99.90;;;;;;6336873;28;19943;-73
2021/07/21 05:28:38;;;;;;;;;;;15.80;99.90;;;;;;6306559;28;20361;-73
2021/07/21 05:31:40;;;;;;;;;;;15.90;99.90;;;;;;6312849;28;19976;-73
2021/07/21 05:34:42;;;;;;;;;;;16.00;99.90;;;;;;6316414;28;19990;-73
2021/07/21 05:37:43;;;;;;;;;;;16.00;99.90;;;;;;6310554;28;19970;-73
2021/07/21 05:40:45;;;;;;;;;;;16.00;99.90;;;;;;6333900;28;20488;-73
2021/07/21 05:43:47;;;;;;;;;;;16.10;99.90;;;;;;6339869;28;19973;-73
2021/07/21 05:46:48;;;;;;;;;;;16.10;99.90;;;;;;6317208;28;19978;-73
2021/07/21 05:49:50;;;;;;;;;;;16.10;99.90;;;;;;6337473;28;19973;-73
2021/07/21 05:52:53;;;;;;;;;;;16.10;99.90;;;;;;6320717;28;20108;-73
2021/07/21 05:55:54;;;;;;;;;;;16.10;99.90;;;;;;6328499;28;19973;-73
2021/07/21 05:58:56;;;;;;;;;;;16.10;99.90;;;;;;6343764;28;19994;-73
2021/07/21 06:01:58;;;;;;;;;;;16.10;99.90;;;;;;6333013;28;19976;-73
2021/07/21 06:04:59;;;;;;;;;;;16.10;99.90;;;;;;6329082;28;19973;-73
2021/07/21 06:08:01;;;;;;;;;;;16.10;99.90;;;;;;6335195;28;19979;-73
2021/07/21 06:11:03;;;;;;;;;;;16.10;99.90;;;;;;6341453;28;19927;-72
2021/07/21 06:14:05;;;;;;;;;;;16.20;99.90;;;;;;6332836;28;19997;-73
2021/07/21 06:17:07;;;;;;;;;;;16.20;99.90;;;;;;6322158;28;19969;-73
2021/07/21 06:20:09;;;;;;;;;;;16.20;99.90;;;;;;6334854;28;19987;-73
2021/07/21 06:23:11;;;;;;;;;;;16.30;99.90;;;;;;6328439;28;19975;-73
2021/07/21 06:26:12;;;;;;;;;;;16.40;99.90;;;;;;6345285;28;19977;-73
2021/07/21 06:29:14;;;;;;;;;;;16.40;99.90;;;;;;6340438;28;19973;-73
2021/07/21 06:32:16;;;;;;;;;;;16.50;99.90;;;;;;6330620;28;20322;-73
2021/07/21 06:35:18;;;;;;;;;;;16.60;99.90;;;;;;6337760;28;20308;-73
2021/07/21 06:38:20;;;;;;;;;;;16.70;99.90;;;;;;6330339;28;19979;-73
2021/07/21 06:41:22;;;;;;;;;;;16.70;99.90;;;;;;6330754;28;20410;-73
2021/07/21 06:44:23;;;;;;;;;;;16.80;99.90;;;;;;6338820;28;20723;-73
2021/07/21 06:47:25;;;;;;;;;;;16.90;99.90;;;;;;6323023;28;19969;-73
2021/07/21 06:50:30;;;;;;;;;;;17.10;99.90;;;;;;6336647;28;19985;-73
2021/07/21 06:53:34;;;;;;;;;;;17.20;99.90;;;;;;6335517;28;20351;-73
2021/07/21 06:56:36;;;;;;;;;;;17.50;99.90;;;;;;6312309;28;19987;-73
2021/07/21 06:59:40;;;;;;;;;;;17.60;99.90;;;;;;6339379;28;19977;-73
2021/07/21 07:02:42;;;;;;;;;;;17.80;99.90;;;;;;6316517;28;19996;-73
2021/07/21 07:05:44;;;;;;;;;;;18.00;99.90;;;;;;6335572;28;20002;-73
2021/07/21 07:08:45;;;;;;;;;;;18.20;99.90;;;;;;6338647;28;20315;-73
2021/07/21 07:11:47;;;;;;;;;;;18.30;99.90;;;;;;6331000;28;19991;-73
2021/07/21 07:14:49;;;;;;;;;;;18.40;99.90;;;;;;6326007;28;19986;-73
2021/07/21 07:17:51;;;;;;;;;;;18.50;99.90;;;;;;6332178;28;19968;-73
2021/07/21 07:20:54;;;;;;;;;;;18.70;99.90;;;;;;6314477;28;20571;-73
2021/07/21 07:23:57;;;;;;;;;;;18.70;99.90;;;;;;6322535;28;20305;-73
2021/07/21 07:26:59;;;;;;;;;;;18.80;99.90;;;;;;6330521;28;19970;-74
2021/07/21 07:30:03;;;;;;;;;;;18.90;99.90;;;;;;6324595;28;20387;-73
2021/07/21 07:33:05;;;;;;;;;;;19.00;99.90;;;;;;6330423;28;20010;-73
2021/07/21 07:36:07;;;;;;;;;;;19.00;99.90;;;;;;6329854;28;19957;-74
2021/07/21 07:39:08;;;;;;;;;;;19.10;99.90;;;;;;6333825;28;19966;-73
2021/07/21 07:42:10;;;;;;;;;;;19.20;99.90;;;;;;6335562;28;20041;-73
2021/07/21 07:45:13;;;;;;;;;;;19.30;99.90;;;;;;6334231;28;19964;-73
2021/07/21 07:48:14;;;;;;;;;;;19.40;99.90;;;;;;6316915;28;20307;-73
2021/07/21 07:51:16;;;;;;;;;;;19.50;99.90;;;;;;6319348;28;20304;-73
2021/07/21 07:54:20;;;;;;;;;;;19.50;99.90;;;;;;6321698;28;20021;-73
2021/07/21 07:57:22;;;;;;;;;;;19.60;99.90;;;;;;6329318;28;19969;-73
2021/07/21 08:00:24;;;;;;;;;;;19.60;99.90;;;;;;6339472;28;20445;-73
2021/07/21 08:03:25;;;;;;;;;;;19.70;99.90;;;;;;6328743;28;19993;-73
2021/07/21 08:06:27;;;;;;;;;;;19.70;99.90;;;;;;6332001;28;20375;-73
2021/07/21 08:09:30;;;;;;;;;;;19.80;99.90;;;;;;6330866;28;20367;-73
2021/07/21 08:12:31;;;;;;;;;;;19.80;99.90;;;;;;6324712;28;20674;-74
2021/07/21 08:15:33;;;;;;;;;;;19.80;99.90;;;;;;6327167;28;19972;-73
2021/07/21 08:18:35;;;;;;;;;;;19.90;99.90;;;;;;6331209;28;20044;-73
2021/07/21 08:21:37;;;;;;;;;;;20.00;99.90;;;;;;6326484;28;19986;-73
2021/07/21 08:24:38;;;;;;;;;;;20.00;99.90;;;;;;6333935;28;19974;-74
2021/07/21 08:27:40;;;;;;;;;;;20.10;99.90;;;;;;6311650;28;19963;-73
2021/07/21 08:30:43;;;;;;;;;;;20.20;99.90;;;;;;6317544;28;19969;-74
2021/07/21 08:33:45;;;;;;;;;;;20.30;99.90;;;;;;6334102;28;19976;-74
2021/07/21 08:36:46;;;;;;;;;;;20.30;99.90;;;;;;6335722;28;20058;-73
2021/07/21 08:39:48;;;;;;;;;;;20.30;99.90;;;;;;6338742;28;19987;-73
2021/07/21 08:42:50;;;;;;;;;;;20.30;99.90;;;;;;6323618;28;19973;-74
2021/07/21 08:45:52;;;;;;;;;;;20.40;99.90;;;;;;6329670;28;19979;-73
2021/07/21 08:48:54;;;;;;;;;;;20.50;99.90;;;;;;6336639;28;20114;-73
2021/07/21 08:51:57;;;;;;;;;;;20.50;99.90;;;;;;6335083;28;20441;-73
2021/07/21 08:55:00;;;;;;;;;;;20.60;99.90;;;;;;6311519;28;20335;-73
2021/07/21 08:58:02;;;;;;;;;;;20.70;99.90;;;;;;6333723;28;19969;-73
2021/07/21 09:01:03;;;;;;;;;;;20.70;99.90;;;;;;6330799;28;19948;-73
2021/07/21 09:04:05;;;;;;;;;;;20.80;99.90;;;;;;6330236;28;19969;-74
2021/07/21 09:07:10;;;;;;;;;;;20.80;99.90;;;;;;6332370;28;19992;-74
2021/07/21 09:10:32;;;;;;;;;;;20.90;99.90;;;;;;6329580;28;20113;-72
2021/07/21 09:13:35;;;;;;;;;;;20.90;99.90;;;;;;6327274;28;19988;-73
2021/07/21 09:16:37;;;;;;;;;;;21.00;99.90;;;;;;6331988;28;20003;-73
2021/07/21 09:19:40;;;;;;;;;;;21.00;99.90;;;;;;6329783;28;19949;-73
2021/07/21 09:22:43;;;;;;;;;;;21.00;99.90;;;;;;6328285;28;20358;-73
2021/07/21 09:25:45;;;;;;;;;;;21.00;99.90;;;;;;6332086;28;19975;-73
2021/07/21 09:28:47;;;;;;;;;;;21.10;99.90;;;;;;6337292;28;19961;-73
2021/07/21 09:31:50;;;;;;;;;;;21.10;99.90;;;;;;6318449;28;20049;-73
2021/07/21 09:34:52;;;;;;;;;;;21.10;99.90;;;;;;6310427;28;19987;-73
2021/07/21 09:37:56;;;;;;;;;;;21.10;99.90;;;;;;6330157;28;20047;-73
2021/07/21 09:41:00;;;;;;;;;;;21.20;99.90;;;;;;6334307;28;19959;-73
2021/07/21 09:44:04;;;;;;;;;;;21.20;99.90;;;;;;6309813;28;19966;-73
2021/07/21 09:47:17;;;;;;;;;;;21.30;99.90;;;;;;6336040;28;19972;-74
2021/07/21 09:50:29;;;;;;;;;;;21.30;99.90;;;;;;6318819;28;19977;-73
2021/07/21 09:53:41;;;;;;;;;;;21.30;99.90;;;;;;6336447;28;19967;-73
2021/07/21 09:56:46;;;;;;;;;;;21.40;99.90;;;;;;6343152;28;19959;-74
2021/07/21 09:59:47;;;;;;;;;;;21.50;99.90;;;;;;6328220;28;20064;-73
2021/07/21 10:02:50;;;;;;;;;;;21.60;99.90;;;;;;6332185;28;19953;-73
2021/07/21 10:06:00;;;;;;;;;;;21.60;99.90;;;;;;6329340;28;19958;-73
2021/07/21 10:09:03;;;;;;;;;;;21.60;99.90;;;;;;6335454;28;20376;-73
2021/07/21 10:12:16;;;;;;;;;;;21.70;99.90;;;;;;6332034;28;19984;-73
2021/07/21 10:15:21;;;;;;;;;;;21.70;99.90;;;;;;6339254;28;20506;-73
2021/07/21 10:18:23;;;;;;;;;;;21.80;99.90;;;;;;6335678;28;19980;-73
2021/07/21 10:21:25;;;;;;;;;;;21.80;99.90;;;;;;6320626;28;19952;-74
2021/07/21 10:24:29;;;;;;;;;;;21.80;99.90;;;;;;6344958;28;20007;-74
2021/07/21 10:27:31;;;;;;;;;;;21.80;99.90;;;;;;6317549;28;19971;-74
2021/07/21 10:30:34;;;;;;;;;;;21.90;99.90;;;;;;6319251;28;19950;-73
2021/07/21 10:33:36;;;;;;;;;;;21.90;99.90;;;;;;6337856;28;20447;-73
2021/07/21 10:36:38;;;;;;;;;;;21.90;99.90;;;;;;6338520;28;19971;-72
2021/07/21 10:39:42;;;;;;;;;;;22.00;99.90;;;;;;6328580;28;19959;-73
2021/07/21 10:42:44;;;;;;;;;;;22.10;99.90;;;;;;6309132;28;19965;-73
2021/07/21 10:45:46;;;;;;;;;;;22.20;99.90;;;;;;6340284;28;19959;-73
2021/07/21 10:48:53;;;;;;;;;;;22.20;99.90;;;;;;6329119;28;20048;-73
2021/07/21 11:01:48;;;;;;;;;;;22.50;99.90;;;;;;6342702;28;19950;-73
2021/07/21 11:04:50;;;;;;;;;;;22.60;99.90;;;;;;6334233;28;20036;-74
2021/07/21 11:07:53;;;;;;;;;;;22.70;99.90;;;;;;6337113;28;19957;-74
2021/07/21 11:10:56;;;;;;;;;;;22.70;99.90;;;;;;6331438;28;19984;-74
2021/07/21 11:13:58;;;;;;;;;;;22.70;99.90;;;;;;6312049;28;19983;-74
2021/07/21 11:17:06;;;;;;;;;;;22.70;99.90;;;;;;6334368;28;19956;-74
2021/07/21 11:20:08;;;;;;;;;;;22.70;99.90;;;;;;6337371;28;19928;-73
2021/07/21 11:23:29;;;;;;;;;;;22.70;99.90;;;;;;6313428;28;19966;-74
2021/07/21 11:26:34;;;;;;;;;;;22.70;99.90;;;;;;6330691;28;19949;-74
2021/07/21 11:29:35;;;;;;;;;;;22.80;99.90;;;;;;6331776;28;19991;-75
2021/07/21 11:32:37;;;;;;;;;;;22.70;99.90;;;;;;6333628;28;19950;-73
2021/07/21 11:35:40;;;;;;;;;;;22.70;99.90;;;;;;6335554;28;20417;-74
2021/07/21 11:38:52;;;;;;;;;;;22.70;99.90;;;;;;6335145;28;20320;-74
2021/07/21 11:41:54;;;;;;;;;;;22.70;99.90;;;;;;6336757;28;19976;-74
2021/07/21 11:45:02;;;;;;;;;;;22.70;99.90;;;;;;6340997;28;19963;-74
2021/07/21 11:48:06;;;;;;;;;;;22.80;99.90;;;;;;6323902;28;19948;-73
2021/07/21 11:51:10;;;;;;;;;;;22.80;99.90;;;;;;6331477;28;20027;-74
2021/07/21 11:54:11;;;;;;;;;;;22.90;99.90;;;;;;6336349;28;20295;-73
2021/07/21 11:57:14;;;;;;;;;;;23.00;99.90;;;;;;6330313;28;20421;-73
2021/07/21 12:00:20;;;;;;;;;;;23.00;99.90;;;;;;6325721;28;19936;-73
2021/07/21 12:03:21;;;;;;;;;;;23.10;99.90;;;;;;6333788;28;19947;-73
2021/07/21 12:06:24;;;;;;;;;;;23.20;99.90;;;;;;6321322;28;19949;-73
2021/07/21 12:09:27;;;;;;;;;;;23.30;99.90;;;;;;6333663;28;19947;-73
2021/07/21 12:12:28;;;;;;;;;;;23.30;99.90;;;;;;6333905;28;19969;-73
2021/07/21 12:15:30;;;;;;;;;;;23.40;99.90;;;;;;6328157;28;20379;-73
2021/07/21 12:18:32;;;;;;;;;;;23.40;99.90;;;;;;6334650;28;19943;-74
2021/07/21 12:21:34;;;;;;;;;;;23.40;99.90;;;;;;6308985;28;19968;-74
2021/07/21 12:24:37;;;;;;;;;;;23.40;99.90;;;;;;6339290;28;19939;-73
2021/07/21 12:27:41;;;;;;;;;;;23.30;99.90;;;;;;6318054;28;19949;-73
2021/07/21 12:30:43;;;;;;;;;;;23.30;99.90;;;;;;6333846;28;19970;-73
2021/07/21 12:33:44;;;;;;;;;;;23.30;99.90;;;;;;6327593;28;19936;-73
2021/07/21 12:36:47;;;;;;;;;;;23.30;99.90;;;;;;6336795;28;20329;-74
2021/07/21 12:39:49;;;;;;;;;;;23.30;99.90;;;;;;6334313;28;19941;-73
2021/07/21 12:42:52;;;;;;;;;;;23.40;99.90;;;;;;6337391;28;19957;-73
2021/07/21 12:45:54;;;;;;;;;;;23.40;99.90;;;;;;6338972;28;19955;-74
2021/07/21 12:48:55;;;;;;;;;;;23.40;99.90;;;;;;6339774;28;19948;-73
2021/07/21 12:51:57;;;;;;;;;;;23.40;99.90;;;;;;6316054;28;19942;-73
2021/07/21 12:54:59;;;;;;;;;;;23.40;99.90;;;;;;6314763;28;20353;-74
2021/07/21 12:58:04;;;;;;;;;;;23.30;99.90;;;;;;6331609;28;19944;-73
2021/07/21 13:01:06;;;;;;;;;;;23.40;99.90;;;;;;6338663;28;19943;-73
2021/07/21 13:04:11;;;;;;;;;;;23.30;99.90;;;;;;6334711;28;19946;-74
2021/07/21 13:07:12;;;;;;;;;;;23.30;99.90;;;;;;6336011;28;19945;-73
2021/07/21 13:10:18;;;;;;;;;;;23.30;99.90;;;;;;6337518;28;19958;-73
2021/07/21 13:13:22;;;;;;;;;;;23.40;99.90;;;;;;6331478;28;19969;-73
2021/07/21 13:16:25;;;;;;;;;;;23.40;99.90;;;;;;6332106;28;20367;-73
2021/07/21 13:19:30;;;;;;;;;;;23.50;99.90;;;;;;6315519;28;19947;-73
2021/07/21 13:22:33;;;;;;;;;;;23.50;99.90;;;;;;6341480;28;20274;-74
2021/07/21 13:25:36;;;;;;;;;;;23.50;99.90;;;;;;6332723;28;19942;-73
2021/07/21 13:28:42;;;;;;;;;;;23.60;99.90;;;;;;6314885;28;20455;-74
2021/07/21 13:31:46;;;;;;;;;;;23.70;99.90;;;;;;6335257;28;21995;-74
2021/07/21 13:35:00;;;;;;;;;;;23.70;99.90;;;;;;6336997;28;19959;-73
2021/07/21 13:38:02;;;;;;;;;;;23.80;99.90;;;;;;6320891;28;19964;-73
2021/07/21 13:41:05;;;;;;;;;;;23.80;99.90;;;;;;6321769;28;20266;-73
2021/07/21 13:44:08;;;;;;;;;;;23.80;99.90;;;;;;6334087;28;19938;-73
2021/07/21 13:47:09;;;;;;;;;;;23.80;99.90;;;;;;6326665;28;19947;-74
2021/07/21 13:50:15;;;;;;;;;;;23.80;99.90;;;;;;6334868;28;19951;-74
2021/07/21 13:53:26;;;;;;;;;;;23.80;99.90;;;;;;6329698;28;20299;-73
2021/07/21 13:56:27;;;;;;;;;;;23.80;99.90;;;;;;6331948;28;19952;-74
2021/07/21 13:59:29;;;;;;;;;;;23.70;99.90;;;;;;6312981;28;20332;-73
2021/07/21 14:02:30;;;;;;;;;;;23.70;99.90;;;;;;6333387;28;20376;-73
2021/07/21 14:05:34;;;;;;;;;;;23.60;99.90;;;;;;6341147;28;20303;-73
2021/07/21 14:08:36;;;;;;;;;;;23.60;99.90;;;;;;6330775;28;19967;-74
2021/07/21 14:11:38;;;;;;;;;;;23.60;99.90;;;;;;6311745;28;19945;-74
2021/07/21 14:14:40;;;;;;;;;;;23.60;99.90;;;;;;6339862;28;19998;-73
2021/07/21 14:17:41;;;;;;;;;;;23.50;99.90;;;;;;6311817;28;19959;-74
2021/07/21 14:20:43;;;;;;;;;;;23.50;99.90;;;;;;6333555;28;19955;-73
2021/07/21 14:23:45;;;;;;;;;;;23.50;99.90;;;;;;6318736;28;19957;-73
2021/07/21 14:26:47;;;;;;;;;;;23.50;99.90;;;;;;6336274;28;19934;-73
2021/07/21 14:29:48;;;;;;;;;;;23.50;99.90;;;;;;6335774;28;19950;-75
2021/07/21 14:32:50;;;;;;;;;;;23.50;99.90;;;;;;6325067;28;20366;-73
2021/07/21 14:35:52;;;;;;;;;;;23.60;99.90;;;;;;6340156;28;19977;-73
2021/07/21 14:38:57;;;;;;;;;;;23.60;99.90;;;;;;6335815;28;19942;-74
2021/07/21 14:41:59;;;;;;;;;;;23.60;99.90;;;;;;6304154;28;19935;-74
2021/07/21 14:45:00;;;;;;;;;;;23.60;99.90;;;;;;6305093;28;20426;-73
2021/07/21 14:48:02;;;;;;;;;;;23.70;99.90;;;;;;6310819;28;19940;-73
2021/07/21 14:51:04;;;;;;;;;;;23.80;99.90;;;;;;6330599;28;19955;-73
2021/07/21 14:54:06;;;;;;;;;;;23.90;99.90;;;;;;6328185;28;19965;-73
2021/07/21 14:57:09;;;;;;;;;;;24.00;99.90;;;;;;6338623;28;19941;-73
2021/07/21 15:00:11;;;;;;;;;;;24.10;99.90;;;;;;6332900;28;20679;-73
2021/07/21 15:03:12;;;;;;;;;;;24.20;99.90;;;;;;6307667;28;19952;-73
2021/07/21 15:06:14;;;;;;;;;;;24.20;99.90;;;;;;6335743;28;20435;-73
2021/07/21 15:09:16;;;;;;;;;;;24.20;99.90;;;;;;6327726;28;20054;-74
2021/07/21 15:12:17;;;;;;;;;;;24.20;99.90;;;;;;6332660;28;19976;-73
2021/07/21 15:15:19;;;;;;;;;;;24.20;99.90;;;;;;6317667;28;19955;-73
2021/07/21 15:18:21;;;;;;;;;;;24.20;99.90;;;;;;6332347;28;19954;-73
2021/07/21 15:21:23;;;;;;;;;;;24.30;99.90;;;;;;6322935;28;20382;-73
2021/07/21 15:24:24;;;;;;;;;;;24.50;99.90;;;;;;6315057;28;20421;-73
2021/07/21 15:27:26;;;;;;;;;;;24.60;99.90;;;;;;6317829;28;19975;-74
2021/07/21 15:30:27;;;;;;;;;;;24.80;99.90;;;;;;6315610;28;19940;-74
2021/07/21 15:33:29;;;;;;;;;;;24.90;99.90;;;;;;6326920;28;19977;-73
2021/07/21 15:36:31;;;;;;;;;;;25.00;99.90;;;;;;6301750;28;19955;-73
2021/07/21 15:39:33;;;;;;;;;;;24.90;99.90;;;;;;6299687;28;20292;-74
2021/07/21 15:42:35;;;;;;;;;;;24.90;99.90;;;;;;6315337;28;20300;-73
2021/07/21 15:45:39;;;;;;;;;;;24.90;99.90;;;;;;6317763;28;19940;-74
2021/07/21 15:48:41;;;;;;;;;;;24.90;99.90;;;;;;6315041;28;20373;-73
2021/07/21 15:51:43;;;;;;;;;;;25.00;99.90;;;;;;6299575;28;20376;-73
2021/07/21 15:54:45;;;;;;;;;;;25.00;99.90;;;;;;6322727;28;19970;-73
2021/07/21 15:57:47;;;;;;;;;;;24.90;99.90;;;;;;6324863;28;19931;-73
2021/07/21 16:00:49;;;;;;;;;;;24.90;99.90;;;;;;6328196;28;19969;-73
2021/07/21 16:03:50;;;;;;;;;;;24.80;99.90;;;;;;6305090;28;19952;-73
2021/07/21 16:06:53;;;;;;;;;;;24.80;99.90;;;;;;6310090;28;19928;-74
2021/07/21 16:09:54;;;;;;;;;;;24.70;99.90;;;;;;6331238;28;19994;-74
2021/07/21 16:12:56;;;;;;;;;;;24.70;99.90;;;;;;6324099;28;20095;-73
2021/07/21 16:16:01;;;;;;;;;;;24.60;99.90;;;;;;6304737;28;20324;-73
2021/07/21 16:19:04;;;;;;;;;;;24.50;99.90;;;;;;6324480;28;20354;-73
2021/07/21 16:22:06;;;;;;;;;;;24.50;99.90;;;;;;6323808;28;20050;-74
2021/07/21 16:25:12;;;;;;;;;;;24.50;99.90;;;;;;6329702;28;20572;-73
2021/07/21 16:28:14;;;;;;;;;;;24.40;99.90;;;;;;6321518;28;19949;-73
2021/07/21 16:31:16;;;;;;;;;;;24.40;99.90;;;;;;6324649;28;19939;-73
2021/07/21 16:34:21;;;;;;;;;;;24.50;99.90;;;;;;6314074;28;19997;-73
2021/07/21 16:37:23;;;;;;;;;;;24.40;99.90;;;;;;6325501;28;19947;-73
2021/07/21 16:40:25;;;;;;;;;;;24.40;99.90;;;;;;6328151;28;19993;-73
2021/07/21 16:43:26;;;;;;;;;;;24.40;99.90;;;;;;6325435;28;19942;-73
2021/07/21 16:46:28;;;;;;;;;;;24.40;99.90;;;;;;6327555;28;20459;-73
2021/07/21 16:49:30;;;;;;;;;;;24.40;99.90;;;;;;6329558;28;19955;-73
2021/07/21 16:52:31;;;;;;;;;;;24.40;99.90;;;;;;6331350;28;19942;-73
2021/07/21 16:55:33;;;;;;;;;;;24.40;99.90;;;;;;6329444;28;19955;-73
2021/07/21 16:58:35;;;;;;;;;;;24.40;99.90;;;;;;6330052;28;19972;-73
2021/07/21 17:01:36;;;;;;;;;;;24.40;99.90;;;;;;6312185;28;19941;-73
2021/07/21 17:04:38;;;;;;;;;;;24.40;99.90;;;;;;6330477;28;19950;-73
2021/07/21 17:07:40;;;;;;;;;;;24.30;99.90;;;;;;6332851;28;19939;-73
2021/07/21 17:10:42;;;;;;;;;;;24.40;99.90;;;;;;6332562;28;20410;-73
2021/07/21 17:13:44;;;;;;;;;;;24.30;99.90;;;;;;6328182;28;19924;-73
2021/07/21 17:16:45;;;;;;;;;;;24.30;99.90;;;;;;6333027;28;19971;-73
2021/07/21 17:19:47;;;;;;;;;;;24.40;99.90;;;;;;6330500;28;20004;-73
2021/07/21 17:22:49;;;;;;;;;;;24.30;99.90;;;;;;6325158;28;19943;-73
2021/07/21 17:25:51;;;;;;;;;;;24.30;99.90;;;;;;6331477;28;19945;-73
2021/07/21 17:28:58;;;;;;;;;;;24.30;99.90;;;;;;6326730;28;19986;-73
2021/07/21 17:31:59;;;;;;;;;;;24.20;99.90;;;;;;6328296;28;20854;-73
2021/07/21 17:35:02;;;;;;;;;;;24.20;99.90;;;;;;6310098;28;19960;-73
2021/07/21 17:38:04;;;;;;;;;;;24.20;99.90;;;;;;6334474;28;19949;-74
2021/07/21 17:41:06;;;;;;;;;;;24.20;99.90;;;;;;6331837;28;19953;-73
2021/07/21 17:44:08;;;;;;;;;;;24.20;99.90;;;;;;6323729;28;19942;-73
2021/07/21 17:47:09;;;;;;;;;;;24.10;99.90;;;;;;6327136;28;19971;-73
2021/07/21 17:50:16;;;;;;;;;;;24.10;99.90;;;;;;6328428;28;23343;-73
2021/07/21 17:53:19;;;;;;;;;;;24.10;99.90;;;;;;6329418;28;19953;-73
2021/07/21 17:56:21;;;;;;;;;;;24.10;99.90;;;;;;6325449;28;20403;-74